sensor_id;sensor_type;location;lat;lon;timestamp;pressure;altitude;pressure_sealevel;temperature;humidity
46778;BME280;32536;47.128;8.746;2022-10-16T00:01:30;91707.09;;;17.31;56.04
46778;BME280;32536;47.128;8.746;2022-10-16T00:03:59;91705.72;;;17.26;56.31
46778;BME280;32536;47.128;8.746;2022-10-16T00:06:30;91697.00;;;17.22;56.30
46778;BME280;32536;47.128;8.746;2022-10-16T00:08:58;91711.28;;;17.23;56.09
46778;BME280;32536;47.128;8.746;2022-10-16T00:11:30;91710.81;;;17.24;56.13
46778;BME280;32536;47.128;8.746;2022-10-16T00:14:08;91707.25;;;17.27;56.14
46778;BME280;32536;47.128;8.746;2022-10-16T00:16:37;91707.84;;;17.32;56.08
46778;BME280;32536;47.128;8.746;2022-10-16T00:19:04;91706.97;;;17.35;55.88
46778;BME280;32536;47.128;8.746;2022-10-16T00:21:31;91704.25;;;17.35;56.02
46778;BME280;32536;47.128;8.746;2022-10-16T00:24:04;91696.28;;;17.31;56.07
46778;BME280;32536;47.128;8.746;2022-10-16T00:26:35;91702.75;;;17.34;55.96
46778;BME280;32536;47.128;8.746;2022-10-16T00:29:03;91706.97;;;17.35;55.82
46778;BME280;32536;47.128;8.746;2022-10-16T00:31:31;91709.22;;;17.36;55.90
46778;BME280;32536;47.128;8.746;2022-10-16T00:33:58;91704.88;;;17.39;55.95
46778;BME280;32536;47.128;8.746;2022-10-16T00:36:26;91697.81;;;17.41;55.87
46778;BME280;32536;47.128;8.746;2022-10-16T00:38:55;91701.16;;;17.46;55.89
46778;BME280;32536;47.128;8.746;2022-10-16T00:41:26;91703.25;;;17.51;55.87
46778;BME280;32536;47.128;8.746;2022-10-16T00:43:58;91697.84;;;17.51;56.13
46778;BME280;32536;47.128;8.746;2022-10-16T00:46:37;91696.34;;;17.50;56.30
46778;BME280;32536;47.128;8.746;2022-10-16T00:49:14;91709.75;;;17.53;56.21
46778;BME280;32536;47.128;8.746;2022-10-16T00:52:17;91698.00;;;17.56;56.30
46778;BME280;32536;47.128;8.746;2022-10-16T00:54:46;91704.63;;;17.55;56.31
46778;BME280;32536;47.128;8.746;2022-10-16T00:57:13;91702.22;;;17.57;56.44
46778;BME280;32536;47.128;8.746;2022-10-16T00:59:41;91705.97;;;17.60;56.37
46778;BME280;32536;47.128;8.746;2022-10-16T01:02:13;91704.03;;;17.60;56.07
46778;BME280;32536;47.128;8.746;2022-10-16T01:04:49;91700.88;;;17.62;55.79
46778;BME280;32536;47.128;8.746;2022-10-16T01:07:49;91700.75;;;17.66;55.83
46778;BME280;32536;47.128;8.746;2022-10-16T01:10:43;91707.22;;;17.68;55.95
46778;BME280;32536;47.128;8.746;2022-10-16T01:16:05;91713.97;;;17.64;56.17
46778;BME280;32536;47.128;8.746;2022-10-16T01:32:40;91714.97;;;17.48;56.15
46778;BME280;32536;47.128;8.746;2022-10-16T01:35:17;91723.09;;;17.48;56.02
46778;BME280;32536;47.128;8.746;2022-10-16T01:38:05;91721.91;;;17.49;56.10
46778;BME280;32536;47.128;8.746;2022-10-16T01:40:36;91721.44;;;17.50;56.17
46778;BME280;32536;47.128;8.746;2022-10-16T01:43:10;91722.34;;;17.47;56.38
46778;BME280;32536;47.128;8.746;2022-10-16T01:45:44;91721.31;;;17.44;56.42
46778;BME280;32536;47.128;8.746;2022-10-16T01:48:14;91718.72;;;17.41;56.44
46778;BME280;32536;47.128;8.746;2022-10-16T01:50:48;91728.50;;;17.38;56.67
46778;BME280;32536;47.128;8.746;2022-10-16T01:53:25;91718.72;;;17.41;56.67
46778;BME280;32536;47.128;8.746;2022-10-16T01:55:54;91725.53;;;17.46;56.47
46778;BME280;32536;47.128;8.746;2022-10-16T01:58:23;91722.69;;;17.49;56.27
46778;BME280;32536;47.128;8.746;2022-10-16T02:00:52;91722.97;;;17.51;56.12
46778;BME280;32536;47.128;8.746;2022-10-16T02:03:21;91724.16;;;17.50;56.40
46778;BME280;32536;47.128;8.746;2022-10-16T02:05:53;91726.13;;;17.50;55.93
46778;BME280;32536;47.128;8.746;2022-10-16T02:08:23;91725.25;;;17.53;56.25
46778;BME280;32536;47.128;8.746;2022-10-16T02:10:51;91726.00;;;17.53;56.08
46778;BME280;32536;47.128;8.746;2022-10-16T02:13:30;91732.59;;;17.52;55.60
46778;BME280;32536;47.128;8.746;2022-10-16T02:16:03;91730.22;;;17.54;55.77
46778;BME280;32536;47.128;8.746;2022-10-16T02:18:30;91727.63;;;17.51;55.68
46778;BME280;32536;47.128;8.746;2022-10-16T02:21:22;91727.59;;;17.41;55.82
46778;BME280;32536;47.128;8.746;2022-10-16T02:24:14;91737.81;;;17.37;55.84
46778;BME280;32536;47.128;8.746;2022-10-16T02:27:33;91734.31;;;17.27;55.85
46778;BME280;32536;47.128;8.746;2022-10-16T02:32:59;91734.31;;;17.27;55.99
46778;BME280;32536;47.128;8.746;2022-10-16T02:35:29;91738.09;;;17.30;55.67
46778;BME280;32536;47.128;8.746;2022-10-16T02:37:57;91742.31;;;17.31;56.05
46778;BME280;32536;47.128;8.746;2022-10-16T02:40:25;91735.19;;;17.24;55.77
46778;BME280;32536;47.128;8.746;2022-10-16T02:42:54;91746.59;;;17.19;56.20
46778;BME280;32536;47.128;8.746;2022-10-16T02:45:22;91750.19;;;17.16;56.25
46778;BME280;32536;47.128;8.746;2022-10-16T02:47:50;91750.94;;;17.17;55.96
46778;BME280;32536;47.128;8.746;2022-10-16T02:50:17;91746.00;;;17.15;56.11
46778;BME280;32536;47.128;8.746;2022-10-16T02:52:44;91753.47;;;17.11;56.13
46778;BME280;32536;47.128;8.746;2022-10-16T02:55:11;91760.19;;;17.06;55.84
46778;BME280;32536;47.128;8.746;2022-10-16T02:57:38;91760.31;;;17.03;55.85
46778;BME280;32536;47.128;8.746;2022-10-16T03:00:11;91767.25;;;17.04;55.83
46778;BME280;32536;47.128;8.746;2022-10-16T03:02:39;91766.63;;;17.00;55.92
46778;BME280;32536;47.128;8.746;2022-10-16T03:05:07;91762.09;;;16.96;55.52
46778;BME280;32536;47.128;8.746;2022-10-16T03:07:34;91750.22;;;16.94;55.66
46778;BME280;32536;47.128;8.746;2022-10-16T03:10:01;91750.31;;;16.90;55.41
46778;BME280;32536;47.128;8.746;2022-10-16T03:12:28;91745.03;;;16.87;55.28
46778;BME280;32536;47.128;8.746;2022-10-16T03:14:56;91742.44;;;16.83;55.56
46778;BME280;32536;47.128;8.746;2022-10-16T03:17:23;91746.03;;;16.80;55.44
46778;BME280;32536;47.128;8.746;2022-10-16T03:19:50;91740.00;;;16.76;55.57
46778;BME280;32536;47.128;8.746;2022-10-16T03:22:17;91741.22;;;16.75;55.17
46778;BME280;32536;47.128;8.746;2022-10-16T03:24:44;91739.25;;;16.75;55.17
46778;BME280;32536;47.128;8.746;2022-10-16T03:27:10;91740.88;;;16.73;54.90
46778;BME280;32536;47.128;8.746;2022-10-16T03:29:37;91748.06;;;16.67;54.62
46778;BME280;32536;47.128;8.746;2022-10-16T03:34:50;91748.75;;;16.58;54.47
46778;BME280;32536;47.128;8.746;2022-10-16T03:37:18;91745.84;;;16.52;54.65
46778;BME280;32536;47.128;8.746;2022-10-16T03:39:45;91751.81;;;16.47;54.55
46778;BME280;32536;47.128;8.746;2022-10-16T03:42:12;91749.22;;;16.43;54.75
46778;BME280;32536;47.128;8.746;2022-10-16T03:44:39;91756.69;;;16.39;54.83
46778;BME280;32536;47.128;8.746;2022-10-16T03:47:05;91746.44;;;16.34;54.81
46778;BME280;32536;47.128;8.746;2022-10-16T03:50:03;91757.38;;;16.30;54.42
46778;BME280;32536;47.128;8.746;2022-10-16T03:52:31;91755.00;;;16.32;55.06
46778;BME280;32536;47.128;8.746;2022-10-16T03:54:58;91761.28;;;16.29;55.32
46778;BME280;32536;47.128;8.746;2022-10-16T03:57:25;91768.63;;;16.29;55.13
46778;BME280;32536;47.128;8.746;2022-10-16T03:59:52;91757.81;;;16.29;55.34
46778;BME280;32536;47.128;8.746;2022-10-16T04:02:19;91752.53;;;16.25;55.09
46778;BME280;32536;47.128;8.746;2022-10-16T04:04:46;91756.97;;;16.19;55.32
46778;BME280;32536;47.128;8.746;2022-10-16T04:07:12;91761.31;;;16.16;55.39
46778;BME280;32536;47.128;8.746;2022-10-16T04:09:39;91767.06;;;16.19;55.22
46778;BME280;32536;47.128;8.746;2022-10-16T04:12:06;91769.31;;;16.20;55.40
46778;BME280;32536;47.128;8.746;2022-10-16T04:14:33;91772.34;;;16.22;55.26
46778;BME280;32536;47.128;8.746;2022-10-16T04:17:00;91773.41;;;16.25;55.35
46778;BME280;32536;47.128;8.746;2022-10-16T04:19:26;91787.16;;;16.17;55.43
46778;BME280;32536;47.128;8.746;2022-10-16T04:21:53;91790.53;;;16.09;55.32
46778;BME280;32536;47.128;8.746;2022-10-16T04:24:20;91782.53;;;16.05;55.34
46778;BME280;32536;47.128;8.746;2022-10-16T04:26:46;91786.22;;;15.98;55.48
46778;BME280;32536;47.128;8.746;2022-10-16T04:29:13;91788.06;;;15.89;55.96
46778;BME280;32536;47.128;8.746;2022-10-16T04:31:40;91781.03;;;15.78;55.90
46778;BME280;32536;47.128;8.746;2022-10-16T04:34:07;91789.13;;;15.78;55.79
46778;BME280;32536;47.128;8.746;2022-10-16T04:36:33;91790.31;;;15.77;55.75
46778;BME280;32536;47.128;8.746;2022-10-16T04:39:00;91798.41;;;15.77;55.88
46778;BME280;32536;47.128;8.746;2022-10-16T04:41:27;91797.13;;;15.82;56.15
46778;BME280;32536;47.128;8.746;2022-10-16T04:43:54;91794.97;;;15.90;55.88
46778;BME280;32536;47.128;8.746;2022-10-16T04:46:21;91802.84;;;15.97;55.64
46778;BME280;32536;47.128;8.746;2022-10-16T04:48:48;91803.16;;;15.99;56.09
46778;BME280;32536;47.128;8.746;2022-10-16T04:51:15;91813.44;;;16.04;55.56
46778;BME280;32536;47.128;8.746;2022-10-16T04:53:41;91801.34;;;16.09;55.79
46778;BME280;32536;47.128;8.746;2022-10-16T04:56:08;91803.03;;;16.15;55.47
46778;BME280;32536;47.128;8.746;2022-10-16T04:58:35;91805.31;;;16.17;55.37
46778;BME280;32536;47.128;8.746;2022-10-16T05:01:01;91809.84;;;16.20;55.32
46778;BME280;32536;47.128;8.746;2022-10-16T05:03:28;91812.56;;;16.20;55.05
46778;BME280;32536;47.128;8.746;2022-10-16T05:05:55;91816.00;;;16.21;55.47
46778;BME280;32536;47.128;8.746;2022-10-16T05:08:22;91817.19;;;16.20;54.84
46778;BME280;32536;47.128;8.746;2022-10-16T05:10:49;91819.25;;;16.15;54.73
46778;BME280;32536;47.128;8.746;2022-10-16T05:13:16;91820.13;;;16.12;54.77
46778;BME280;32536;47.128;8.746;2022-10-16T05:15:47;91817.56;;;16.09;54.31
46778;BME280;32536;47.128;8.746;2022-10-16T05:18:14;91821.13;;;16.06;55.00
46778;BME280;32536;47.128;8.746;2022-10-16T05:20:42;91814.19;;;16.05;54.98
46778;BME280;32536;47.128;8.746;2022-10-16T05:23:09;91811.59;;;16.01;55.24
46778;BME280;32536;47.128;8.746;2022-10-16T05:25:37;91802.75;;;16.00;55.21
46778;BME280;32536;47.128;8.746;2022-10-16T05:28:04;91804.56;;;16.04;55.34
46778;BME280;32536;47.128;8.746;2022-10-16T05:30:31;91809.13;;;16.07;55.02
46778;BME280;32536;47.128;8.746;2022-10-16T05:32:57;91816.03;;;16.08;55.15
46778;BME280;32536;47.128;8.746;2022-10-16T05:35:24;91808.78;;;16.05;55.21
46778;BME280;32536;47.128;8.746;2022-10-16T05:37:52;91806.63;;;15.99;55.53
46778;BME280;32536;47.128;8.746;2022-10-16T05:40:19;91807.94;;;15.95;55.55
46778;BME280;32536;47.128;8.746;2022-10-16T05:42:45;91810.41;;;15.89;55.69
46778;BME280;32536;47.128;8.746;2022-10-16T05:45:12;91817.78;;;15.89;55.80
46778;BME280;32536;47.128;8.746;2022-10-16T05:47:39;91820.81;;;15.91;56.10
46778;BME280;32536;47.128;8.746;2022-10-16T05:50:09;91814.63;;;15.90;56.06
46778;BME280;32536;47.128;8.746;2022-10-16T05:52:36;91814.63;;;15.90;56.09
46778;BME280;32536;47.128;8.746;2022-10-16T05:55:03;91816.69;;;15.86;56.15
46778;BME280;32536;47.128;8.746;2022-10-16T05:57:30;91813.66;;;15.84;56.04
46778;BME280;32536;47.128;8.746;2022-10-16T05:59:57;91820.16;;;15.87;56.35
46778;BME280;32536;47.128;8.746;2022-10-16T06:02:24;91823.50;;;15.91;56.01
46778;BME280;32536;47.128;8.746;2022-10-16T06:04:51;91822.22;;;15.95;56.47
46778;BME280;32536;47.128;8.746;2022-10-16T06:07:22;91819.81;;;15.97;56.17
46778;BME280;32536;47.128;8.746;2022-10-16T06:09:52;91815.94;;;15.98;56.31
46778;BME280;32536;47.128;8.746;2022-10-16T06:12:20;91820.59;;;15.98;56.30
46778;BME280;32536;47.128;8.746;2022-10-16T06:14:47;91815.06;;;16.02;56.31
46778;BME280;32536;47.128;8.746;2022-10-16T06:17:14;91819.47;;;16.08;55.95
46778;BME280;32536;47.128;8.746;2022-10-16T06:19:41;91823.16;;;16.14;56.16
46778;BME280;32536;47.128;8.746;2022-10-16T06:22:08;91821.97;;;16.15;55.84
46778;BME280;32536;47.128;8.746;2022-10-16T06:24:35;91822.41;;;16.14;56.13
46778;BME280;32536;47.128;8.746;2022-10-16T06:27:03;91829.44;;;16.11;55.82
46778;BME280;32536;47.128;8.746;2022-10-16T06:29:30;91840.13;;;16.15;55.87
46778;BME280;32536;47.128;8.746;2022-10-16T06:31:57;91840.44;;;16.17;56.04
46778;BME280;32536;47.128;8.746;2022-10-16T06:34:23;91840.78;;;16.19;55.73
46778;BME280;32536;47.128;8.746;2022-10-16T06:36:50;91834.63;;;16.19;55.85
46778;BME280;32536;47.128;8.746;2022-10-16T06:39:17;91835.38;;;16.19;56.12
46778;BME280;32536;47.128;8.746;2022-10-16T06:41:44;91837.22;;;16.22;55.87
46778;BME280;32536;47.128;8.746;2022-10-16T06:44:10;91851.03;;;16.24;55.75
46778;BME280;32536;47.128;8.746;2022-10-16T06:46:37;91847.13;;;16.25;55.83
46778;BME280;32536;47.128;8.746;2022-10-16T06:49:04;91847.66;;;16.33;55.87
46778;BME280;32536;47.128;8.746;2022-10-16T06:51:31;91850.56;;;16.39;55.60
46778;BME280;32536;47.128;8.746;2022-10-16T06:54:00;91851.53;;;16.45;55.55
46778;BME280;32536;47.128;8.746;2022-10-16T06:56:27;91856.09;;;16.48;55.59
46778;BME280;32536;47.128;8.746;2022-10-16T06:58:56;91858.34;;;16.49;55.47
46778;BME280;32536;47.128;8.746;2022-10-16T07:01:24;91858.78;;;16.48;55.63
46778;BME280;32536;47.128;8.746;2022-10-16T07:03:51;91865.38;;;16.47;55.63
46778;BME280;32536;47.128;8.746;2022-10-16T07:06:21;91868.53;;;16.45;56.09
46778;BME280;32536;47.128;8.746;2022-10-16T07:08:48;91865.06;;;16.45;55.87
46778;BME280;32536;47.128;8.746;2022-10-16T07:11:18;91867.31;;;16.46;56.06
46778;BME280;32536;47.128;8.746;2022-10-16T07:13:47;91870.22;;;16.52;56.01
46778;BME280;32536;47.128;8.746;2022-10-16T07:16:18;91874.00;;;16.55;55.85
46778;BME280;32536;47.128;8.746;2022-10-16T07:18:47;91871.97;;;16.59;55.74
46778;BME280;32536;47.128;8.746;2022-10-16T07:21:17;91877.56;;;16.64;55.76
46778;BME280;32536;47.128;8.746;2022-10-16T07:23:50;91884.69;;;16.71;55.93
46778;BME280;32536;47.128;8.746;2022-10-16T07:26:18;91885.22;;;16.79;55.88
46778;BME280;32536;47.128;8.746;2022-10-16T07:28:44;91880.41;;;16.83;55.84
46778;BME280;32536;47.128;8.746;2022-10-16T07:31:12;91885.28;;;16.88;55.68
46778;BME280;32536;47.128;8.746;2022-10-16T07:33:42;91887.56;;;16.90;55.58
46778;BME280;32536;47.128;8.746;2022-10-16T07:36:12;91897.09;;;16.94;55.84
46778;BME280;32536;47.128;8.746;2022-10-16T07:38:39;91890.38;;;16.99;55.84
46778;BME280;32536;47.128;8.746;2022-10-16T07:41:11;91892.19;;;17.02;55.61
46778;BME280;32536;47.128;8.746;2022-10-16T07:43:40;91900.53;;;17.08;55.58
46778;BME280;32536;47.128;8.746;2022-10-16T07:46:12;91904.91;;;17.15;55.58
46778;BME280;32536;47.128;8.746;2022-10-16T07:48:40;91908.56;;;17.21;55.57
46778;BME280;32536;47.128;8.746;2022-10-16T07:51:12;91915.25;;;17.29;55.58
46778;BME280;32536;47.128;8.746;2022-10-16T07:53:39;91914.28;;;17.36;55.13
46778;BME280;32536;47.128;8.746;2022-10-16T07:56:07;91910.66;;;17.39;55.20
46778;BME280;32536;47.128;8.746;2022-10-16T07:58:35;91910.53;;;17.42;55.25
46778;BME280;32536;47.128;8.746;2022-10-16T08:01:10;91912.50;;;17.42;54.63
46778;BME280;32536;47.128;8.746;2022-10-16T08:03:42;91914.44;;;17.41;55.07
46778;BME280;32536;47.128;8.746;2022-10-16T08:06:13;91919.13;;;17.41;55.04
46778;BME280;32536;47.128;8.746;2022-10-16T08:08:40;91924.53;;;17.41;55.17
46778;BME280;32536;47.128;8.746;2022-10-16T08:11:07;91921.69;;;17.44;55.02
46778;BME280;32536;47.128;8.746;2022-10-16T08:13:34;91918.53;;;17.46;55.29
46778;BME280;32536;47.128;8.746;2022-10-16T08:16:01;91920.81;;;17.48;55.35
46778;BME280;32536;47.128;8.746;2022-10-16T08:18:42;91925.03;;;17.49;54.96
46778;BME280;32536;47.128;8.746;2022-10-16T08:21:16;91929.00;;;17.57;55.04
46778;BME280;32536;47.128;8.746;2022-10-16T08:23:44;91934.47;;;17.66;55.33
46778;BME280;32536;47.128;8.746;2022-10-16T08:26:11;91936.50;;;17.75;55.51
46778;BME280;32536;47.128;8.746;2022-10-16T08:28:39;91932.94;;;17.87;55.32
46778;BME280;32536;47.128;8.746;2022-10-16T08:31:11;91940.72;;;17.98;54.94
46778;BME280;32536;47.128;8.746;2022-10-16T08:33:41;91931.88;;;18.07;55.47
46778;BME280;32536;47.128;8.746;2022-10-16T08:36:11;91935.84;;;18.15;55.26
46778;BME280;32536;47.128;8.746;2022-10-16T08:38:38;91943.25;;;18.24;55.30
46778;BME280;32536;47.128;8.746;2022-10-16T08:41:37;91939.81;;;18.33;54.83
46778;BME280;32536;47.128;8.746;2022-10-16T08:50:28;91962.69;;;18.63;54.65
46778;BME280;32536;47.128;8.746;2022-10-16T08:52:57;91959.22;;;18.72;55.30
46778;BME280;32536;47.128;8.746;2022-10-16T08:55:43;91965.16;;;18.80;55.07
46778;BME280;32536;47.128;8.746;2022-10-16T08:58:18;91967.69;;;18.83;54.97
46778;BME280;32536;47.128;8.746;2022-10-16T09:00:56;91967.56;;;18.87;54.65
46778;BME280;32536;47.128;8.746;2022-10-16T09:21:01;91983.34;;;19.11;54.20
46778;BME280;32536;47.128;8.746;2022-10-16T09:23:37;91984.41;;;19.13;54.43
46778;BME280;32536;47.128;8.746;2022-10-16T09:26:05;91978.81;;;19.17;54.47
46778;BME280;32536;47.128;8.746;2022-10-16T09:28:37;91974.75;;;19.22;54.53
46778;BME280;32536;47.128;8.746;2022-10-16T09:31:04;91987.41;;;19.25;54.41
46778;BME280;32536;47.128;8.746;2022-10-16T09:33:39;91988.19;;;19.25;54.37
46778;BME280;32536;47.128;8.746;2022-10-16T09:36:08;91981.41;;;19.30;54.35
46778;BME280;32536;47.128;8.746;2022-10-16T09:38:36;91991.69;;;19.35;54.33
46778;BME280;32536;47.128;8.746;2022-10-16T09:43:54;91995.75;;;19.40;53.86
46778;BME280;32536;47.128;8.746;2022-10-16T09:46:35;91990.31;;;19.40;53.79
46778;BME280;32536;47.128;8.746;2022-10-16T09:49:20;91988.34;;;19.40;53.78
46778;BME280;32536;47.128;8.746;2022-10-16T09:51:49;91986.69;;;19.43;54.09
46778;BME280;32536;47.128;8.746;2022-10-16T09:54:20;91991.66;;;19.44;54.03
46778;BME280;32536;47.128;8.746;2022-10-16T09:56:48;91989.25;;;19.46;54.13
46778;BME280;32536;47.128;8.746;2022-10-16T09:59:19;91996.22;;;19.47;54.01
46778;BME280;32536;47.128;8.746;2022-10-16T10:01:50;91992.91;;;19.43;54.02
46778;BME280;32536;47.128;8.746;2022-10-16T10:04:23;91999.06;;;19.44;53.92
46778;BME280;32536;47.128;8.746;2022-10-16T10:06:53;91995.91;;;19.45;54.11
46778;BME280;32536;47.128;8.746;2022-10-16T10:09:26;92000.13;;;19.46;53.97
46778;BME280;32536;47.128;8.746;2022-10-16T10:11:54;91997.72;;;19.48;54.11
46778;BME280;32536;47.128;8.746;2022-10-16T10:14:44;91994.22;;;19.48;53.74
46778;BME280;32536;47.128;8.746;2022-10-16T10:31:07;91974.16;;;19.45;54.34
46778;BME280;32536;47.128;8.746;2022-10-16T10:37:12;91976.72;;;19.49;54.26
46778;BME280;32536;47.128;8.746;2022-10-16T10:42:54;91976.59;;;19.62;54.34
46778;BME280;32536;47.128;8.746;2022-10-16T10:45:37;91973.56;;;19.69;54.22
46778;BME280;32536;47.128;8.746;2022-10-16T10:50:59;91970.66;;;19.82;54.29
46778;BME280;32536;47.128;8.746;2022-10-16T10:53:42;91969.19;;;19.90;54.47
46778;BME280;32536;47.128;8.746;2022-10-16T10:56:39;91962.38;;;19.95;53.94
46778;BME280;32536;47.128;8.746;2022-10-16T11:02:21;91958.41;;;20.05;53.83
46778;BME280;32536;47.128;8.746;2022-10-16T11:05:02;91956.16;;;20.13;53.92
46778;BME280;32536;47.128;8.746;2022-10-16T11:07:49;91959.59;;;20.23;53.40
46778;BME280;32536;47.128;8.746;2022-10-16T11:10:29;91955.31;;;20.31;53.64
46778;BME280;32536;47.128;8.746;2022-10-16T11:15:53;91945.78;;;20.45;53.45
46778;BME280;32536;47.128;8.746;2022-10-16T11:18:32;91945.59;;;20.48;53.16
46778;BME280;32536;47.128;8.746;2022-10-16T11:21:12;91946.50;;;20.55;53.35
46778;BME280;32536;47.128;8.746;2022-10-16T11:23:48;91937.53;;;20.63;52.91
46778;BME280;32536;47.128;8.746;2022-10-16T11:26:24;91941.88;;;20.70;53.15
46778;BME280;32536;47.128;8.746;2022-10-16T11:28:54;91929.91;;;20.77;53.49
46778;BME280;32536;47.128;8.746;2022-10-16T11:31:43;91934.28;;;20.84;51.44
46778;BME280;32536;47.128;8.746;2022-10-16T11:34:34;91926.81;;;20.93;52.62
46778;BME280;32536;47.128;8.746;2022-10-16T11:37:16;91922.81;;;21.04;52.32
46778;BME280;32536;47.128;8.746;2022-10-16T11:39:48;91920.47;;;21.11;53.28
46778;BME280;32536;47.128;8.746;2022-10-16T11:42:20;91922.59;;;21.17;52.88
46778;BME280;32536;47.128;8.746;2022-10-16T11:44:54;91913.28;;;21.23;53.32
46778;BME280;32536;47.128;8.746;2022-10-16T11:47:36;91915.34;;;21.28;52.20
46778;BME280;32536;47.128;8.746;2022-10-16T11:50:56;91914.56;;;21.37;51.97
46778;BME280;32536;47.128;8.746;2022-10-16T11:56:55;91912.44;;;21.56;52.31
46778;BME280;32536;47.128;8.746;2022-10-16T12:02:39;91907.59;;;21.75;51.02
46778;BME280;32536;47.128;8.746;2022-10-16T12:05:20;91905.72;;;21.82;52.55
46778;BME280;32536;47.128;8.746;2022-10-16T12:08:09;91918.19;;;21.88;51.66
46778;BME280;32536;47.128;8.746;2022-10-16T12:10:40;91903.16;;;21.93;52.50
46778;BME280;32536;47.128;8.746;2022-10-16T12:13:28;91905.50;;;22.00;51.23
46778;BME280;32536;47.128;8.746;2022-10-16T12:18:32;91902.88;;;22.21;52.60
46778;BME280;32536;47.128;8.746;2022-10-16T12:21:00;91907.47;;;22.30;52.52
46778;BME280;32536;47.128;8.746;2022-10-16T12:23:37;91897.69;;;22.38;51.82
46778;BME280;32536;47.128;8.746;2022-10-16T12:26:13;91896.09;;;22.46;52.33
46778;BME280;32536;47.128;8.746;2022-10-16T12:28:39;91906.03;;;22.49;52.00
46778;BME280;32536;47.128;8.746;2022-10-16T12:31:09;91894.38;;;22.49;51.12
46778;BME280;32536;47.128;8.746;2022-10-16T12:33:50;91885.72;;;22.50;50.34
46778;BME280;32536;47.128;8.746;2022-10-16T12:36:35;91883.63;;;22.60;50.29
46778;BME280;32536;47.128;8.746;2022-10-16T12:39:02;91881.50;;;22.70;51.31
46778;BME280;32536;47.128;8.746;2022-10-16T12:41:35;91881.88;;;22.78;49.61
46778;BME280;32536;47.128;8.746;2022-10-16T12:44:20;91883.78;;;22.92;51.29
46778;BME280;32536;47.128;8.746;2022-10-16T12:46:52;91884.41;;;23.02;50.76
46778;BME280;32536;47.128;8.746;2022-10-16T12:51:55;91882.50;;;23.08;50.51
46778;BME280;32536;47.128;8.746;2022-10-16T13:17:58;91888.94;;;23.46;48.91
46778;BME280;32536;47.128;8.746;2022-10-16T13:24:16;91888.56;;;23.59;48.05
46778;BME280;32536;47.128;8.746;2022-10-16T13:26:55;91888.31;;;23.57;46.34
46778;BME280;32536;47.128;8.746;2022-10-16T13:29:30;91897.78;;;23.62;47.92
46778;BME280;32536;47.128;8.746;2022-10-16T13:32:00;91901.81;;;23.66;48.14
46778;BME280;32536;47.128;8.746;2022-10-16T13:34:43;91898.13;;;23.70;47.06
46778;BME280;32536;47.128;8.746;2022-10-16T13:37:20;91900.38;;;23.71;47.59
46778;BME280;32536;47.128;8.746;2022-10-16T13:39:48;91899.63;;;23.71;48.41
46778;BME280;32536;47.128;8.746;2022-10-16T13:42:26;91894.69;;;23.75;46.52
46778;BME280;32536;47.128;8.746;2022-10-16T13:44:55;91904.22;;;23.85;48.36
46778;BME280;32536;47.128;8.746;2022-10-16T13:47:25;91899.28;;;23.89;48.39
46778;BME280;32536;47.128;8.746;2022-10-16T13:50:05;91907.31;;;23.93;47.95
46778;BME280;32536;47.128;8.746;2022-10-16T13:53:06;91900.66;;;24.00;48.68
46778;BME280;32536;47.128;8.746;2022-10-16T13:55:36;91909.66;;;24.06;47.09
46778;BME280;32536;47.128;8.746;2022-10-16T13:58:12;91901.44;;;24.06;47.05
46778;BME280;32536;47.128;8.746;2022-10-16T14:00:41;91910.00;;;24.13;46.62
46778;BME280;32536;47.128;8.746;2022-10-16T14:03:19;91906.28;;;24.17;48.64
46778;BME280;32536;47.128;8.746;2022-10-16T14:05:47;91914.47;;;24.17;48.73
46778;BME280;32536;47.128;8.746;2022-10-16T14:08:14;91916.47;;;24.16;48.57
46778;BME280;32536;47.128;8.746;2022-10-16T14:10:41;91912.97;;;24.16;48.52
46778;BME280;32536;47.128;8.746;2022-10-16T14:13:16;91916.19;;;24.14;47.37
46778;BME280;32536;47.128;8.746;2022-10-16T14:15:49;91914.69;;;24.13;47.85
46778;BME280;32536;47.128;8.746;2022-10-16T14:18:22;91915.19;;;24.11;48.03
46778;BME280;32536;47.128;8.746;2022-10-16T14:20:51;91918.13;;;24.08;48.41
46778;BME280;32536;47.128;8.746;2022-10-16T14:23:44;91928.28;;;24.02;47.46
46778;BME280;32536;47.128;8.746;2022-10-16T14:28:42;91935.59;;;23.90;48.24
46778;BME280;32536;47.128;8.746;2022-10-16T14:33:53;91938.72;;;23.77;48.50
46778;BME280;32536;47.128;8.746;2022-10-16T14:36:20;91935.44;;;23.73;48.38
46778;BME280;32536;47.128;8.746;2022-10-16T14:41:26;91950.09;;;23.70;48.27
46778;BME280;32536;47.128;8.746;2022-10-16T14:43:56;91946.03;;;23.65;48.15
46778;BME280;32536;47.128;8.746;2022-10-16T14:46:36;91944.00;;;23.60;47.22
46778;BME280;32536;47.128;8.746;2022-10-16T14:51:39;91947.09;;;23.47;48.13
46778;BME280;32536;47.128;8.746;2022-10-16T14:54:08;91952.22;;;23.39;48.15
46778;BME280;32536;47.128;8.746;2022-10-16T14:56:53;91947.66;;;23.30;46.90
46778;BME280;32536;47.128;8.746;2022-10-16T14:59:29;91945.38;;;23.29;47.75
46778;BME280;32536;47.128;8.746;2022-10-16T15:02:28;91949.56;;;23.24;46.90
46778;BME280;32536;47.128;8.746;2022-10-16T15:05:20;91951.03;;;23.25;47.19
46778;BME280;32536;47.128;8.746;2022-10-16T15:07:50;91952.84;;;23.28;48.29
46778;BME280;32536;47.128;8.746;2022-10-16T15:10:20;91954.06;;;23.27;48.09
46778;BME280;32536;47.128;8.746;2022-10-16T15:12:49;91960.28;;;23.28;48.21
46778;BME280;32536;47.128;8.746;2022-10-16T15:15:33;91962.75;;;23.26;47.47
46778;BME280;32536;47.128;8.746;2022-10-16T15:18:03;91962.88;;;23.16;48.09
46778;BME280;32536;47.128;8.746;2022-10-16T15:20:33;91968.16;;;23.05;48.10
46778;BME280;32536;47.128;8.746;2022-10-16T15:23:02;91969.50;;;22.95;48.19
46778;BME280;32536;47.128;8.746;2022-10-16T15:25:47;91966.41;;;22.87;47.48
46778;BME280;32536;47.128;8.746;2022-10-16T15:28:16;91971.41;;;22.89;48.36
46778;BME280;32536;47.128;8.746;2022-10-16T15:30:44;91976.13;;;22.88;48.16
46778;BME280;32536;47.128;8.746;2022-10-16T15:33:20;91978.03;;;22.82;46.29